createdAt,value
2016-05-27T00:00:01.028Z,0
2016-05-27T00:01:00.873Z,0
2016-05-27T00:02:01.033Z,0
2016-05-27T00:03:01.036Z,0
2016-05-27T00:04:01.070Z,0
2016-05-27T00:05:01.041Z,0
2016-05-27T00:06:01.075Z,0
2016-05-27T00:07:00.906Z,0
2016-05-27T00:08:01.080Z,0
2016-05-27T00:09:00.911Z,0
2016-05-27T00:10:01.086Z,0
2016-05-27T00:11:01.088Z,0
2016-05-27T00:12:01.075Z,0
2016-05-27T00:13:00.937Z,0
2016-05-27T00:14:01.097Z,0
2016-05-27T00:15:01.099Z,0
2016-05-27T00:16:01.101Z,0
2016-05-27T00:17:01.104Z,0
2016-05-27T00:18:00.966Z,0
2016-05-27T00:19:01.376Z,0
2016-05-27T00:20:00.972Z,0
2016-05-27T00:21:01.131Z,0
2016-05-27T00:22:01.148Z,0
2016-05-27T00:23:01.136Z,0
2016-05-27T00:24:01.140Z,0
2016-05-27T00:25:01.157Z,0
2016-05-27T00:26:01.004Z,0
2016-05-27T00:27:01.162Z,0
2016-05-27T00:28:01.009Z,0
2016-05-27T00:29:01.167Z,0
2016-05-27T00:30:01.186Z,0
2016-05-27T00:31:01.204Z,0
2016-05-27T00:32:01.192Z,0
2016-05-27T00:33:01.194Z,0
2016-05-27T00:34:01.931Z,0
2016-05-27T00:35:01.199Z,0
2016-05-27T00:36:01.046Z,0
2016-05-27T00:37:01.205Z,0
2016-05-27T00:38:01.067Z,0
2016-05-27T00:39:01.225Z,0
2016-05-27T00:40:01.228Z,0
2016-05-27T00:41:01.231Z,0
2016-05-27T00:42:01.233Z,0
2016-05-27T00:43:01.096Z,0
2016-05-27T00:44:01.099Z,0
2016-05-27T00:45:01.258Z,0
2016-05-27T00:46:01.244Z,0
2016-05-27T00:47:01.263Z,0
2016-05-27T00:48:01.109Z,0
2016-05-27T00:49:01.207Z,0
2016-05-27T00:50:01.115Z,0
2016-05-27T00:51:01.274Z,0
2016-05-27T00:52:01.292Z,0
2016-05-27T00:53:01.295Z,0
2016-05-27T00:54:01.298Z,0
2016-05-27T00:55:01.143Z,0
2016-05-27T00:56:01.318Z,0
2016-05-27T00:57:01.009Z,0
2016-05-27T00:58:01.323Z,0
2016-05-27T00:59:01.327Z,0
2016-05-27T01:00:01.329Z,0
2016-05-27T01:01:01.347Z,0
2016-05-27T01:02:01.335Z,0
2016-05-27T01:03:01.337Z,0
2016-05-27T01:04:01.606Z,0
2016-05-27T01:05:01.342Z,0
2016-05-27T01:06:01.361Z,0
2016-05-27T01:07:01.364Z,0
2016-05-27T01:08:01.366Z,0
2016-05-27T01:09:01.385Z,0
2016-05-27T01:10:01.371Z,0
2016-05-27T01:11:01.374Z,0
2016-05-27T01:12:01.408Z,0
2016-05-27T01:13:01.396Z,0
2016-05-27T01:14:01.242Z,0
2016-05-27T01:15:01.260Z,0
2016-05-27T01:16:01.404Z,0
2016-05-27T01:17:01.266Z,0
2016-05-27T01:18:01.425Z,0
2016-05-27T01:19:01.271Z,0
2016-05-27T01:20:01.290Z,0
2016-05-27T01:21:01.432Z,0
2016-05-27T01:22:01.436Z,0
2016-05-27T01:23:01.437Z,0
2016-05-27T01:24:01.456Z,0
2016-05-27T01:25:01.474Z,0
2016-05-27T01:26:01.446Z,0
2016-05-27T01:27:01.465Z,0
2016-05-27T01:28:01.468Z,0
2016-05-27T01:29:01.470Z,0
2016-05-27T01:30:01.488Z,0
2016-05-27T01:31:01.506Z,0
2016-05-27T01:32:01.493Z,0
2016-05-27T01:33:01.496Z,0
2016-05-27T01:34:01.421Z,0
2016-05-27T01:35:01.361Z,0
2016-05-27T01:36:01.503Z,0
2016-05-27T01:37:01.211Z,0
2016-05-27T01:38:01.369Z,0
2016-05-27T01:39:01.387Z,0
2016-05-27T01:40:01.530Z,0
2016-05-27T01:41:01.533Z,0
2016-05-27T01:42:01.536Z,0
2016-05-27T01:43:01.242Z,0
2016-05-27T01:44:01.541Z,0
2016-05-27T01:45:01.560Z,0
2016-05-27T01:46:01.563Z,0
2016-05-27T01:47:01.565Z,0
2016-05-27T01:48:01.583Z,0
2016-05-27T01:49:01.698Z,0
2016-05-27T01:50:01.438Z,0
2016-05-27T01:51:01.679Z,0
2016-05-27T01:52:01.498Z,0
2016-05-27T01:53:01.520Z,0
2016-05-27T01:54:01.712Z,0
2016-05-27T01:55:01.706Z,0
2016-05-27T01:56:01.731Z,0
2016-05-27T01:57:01.741Z,0
2016-05-27T01:58:01.782Z,0
2016-05-27T01:59:01.759Z,0
2016-05-27T02:00:01.796Z,0
2016-05-27T02:01:01.802Z,0
2016-05-27T02:02:01.775Z,0
2016-05-27T02:03:01.797Z,0
2016-05-27T02:04:01.973Z,0
2016-05-27T02:05:01.805Z,0
2016-05-27T02:06:01.824Z,0
2016-05-27T02:07:01.656Z,0
2016-05-27T02:08:01.817Z,0
2016-05-27T02:09:01.834Z,0
2016-05-27T02:10:01.838Z,0
2016-05-27T02:11:01.840Z,0
2016-05-27T02:12:01.860Z,0
2016-05-27T02:13:01.863Z,0
2016-05-27T02:14:01.865Z,0
2016-05-27T02:15:01.868Z,0
2016-05-27T02:16:01.715Z,0
2016-05-27T02:17:01.718Z,0
2016-05-27T02:18:01.721Z,0
2016-05-27T02:19:02.192Z,0
2016-05-27T02:20:01.882Z,0
2016-05-27T02:21:01.899Z,0
2016-05-27T02:22:01.902Z,0
2016-05-27T02:23:01.890Z,0
2016-05-27T02:24:01.908Z,0
2016-05-27T02:25:01.910Z,0
2016-05-27T02:26:01.773Z,0
2016-05-27T02:27:01.931Z,0
2016-05-27T02:28:01.934Z,0
2016-05-27T02:29:01.937Z,0
2016-05-27T02:30:01.940Z,0
2016-05-27T02:31:01.942Z,0
2016-05-27T02:32:01.945Z,0
2016-05-27T02:33:01.947Z,0
2016-05-27T02:34:02.451Z,0
2016-05-27T02:35:01.969Z,0
2016-05-27T02:36:01.972Z,0
2016-05-27T02:37:01.974Z,0
2016-05-27T02:38:01.978Z,0
2016-05-27T02:39:01.980Z,0
2016-05-27T02:40:01.857Z,0
2016-05-27T02:41:02.000Z,0
2016-05-27T02:42:02.019Z,0
2016-05-27T02:43:01.850Z,0
2016-05-27T02:44:02.025Z,0
2016-05-27T02:45:02.043Z,0
2016-05-27T02:46:01.857Z,0
2016-05-27T02:47:02.032Z,0
2016-05-27T02:48:01.719Z,0
2016-05-27T02:49:01.882Z,0
2016-05-27T02:50:02.041Z,0
2016-05-27T02:51:02.043Z,0
2016-05-27T02:52:01.902Z,0
2016-05-27T02:53:01.921Z,0
2016-05-27T02:54:02.067Z,0
2016-05-27T02:55:01.754Z,0
2016-05-27T02:56:02.088Z,0
2016-05-27T02:57:02.075Z,0
2016-05-27T02:58:02.075Z,0
2016-05-27T02:59:02.078Z,0
2016-05-27T03:00:02.096Z,0
2016-05-27T03:01:02.084Z,0
2016-05-27T03:02:02.102Z,0
2016-05-27T03:03:02.120Z,0
2016-05-27T03:04:02.248Z,0
2016-05-27T03:05:02.125Z,0
2016-05-27T03:06:01.972Z,0
2016-05-27T03:07:01.975Z,0
2016-05-27T03:08:02.134Z,0
2016-05-27T03:09:01.980Z,0
2016-05-27T03:10:02.139Z,0
2016-05-27T03:11:01.986Z,0
2016-05-27T03:12:02.144Z,0
2016-05-27T03:13:02.147Z,0
2016-05-27T03:14:02.008Z,0
2016-05-27T03:15:02.168Z,0
2016-05-27T03:16:02.014Z,0
2016-05-27T03:17:02.173Z,0
2016-05-27T03:18:02.175Z,0
2016-05-27T03:19:02.210Z,0
2016-05-27T03:20:02.181Z,4
2016-05-27T03:21:02.044Z,4
2016-05-27T03:22:02.186Z,4
2016-05-27T03:23:02.236Z,4
2016-05-27T03:24:01.896Z,4
2016-05-27T03:25:02.226Z,4
2016-05-27T03:26:02.229Z,4
2016-05-27T03:27:02.215Z,4
2016-05-27T03:28:02.234Z,0
2016-05-27T03:29:02.252Z,0
2016-05-27T03:30:02.240Z,4
2016-05-27T03:31:02.242Z,4
2016-05-27T03:32:02.260Z,4
2016-05-27T03:33:02.263Z,4
2016-05-27T03:34:02.406Z,4
2016-05-27T03:35:02.268Z,8
2016-05-27T03:36:02.271Z,4
2016-05-27T03:37:02.273Z,4
2016-05-27T03:38:02.276Z,8
2016-05-27T03:39:02.295Z,8
2016-05-27T03:40:02.281Z,8
2016-05-27T03:41:02.144Z,12
2016-05-27T03:42:02.147Z,8
2016-05-27T03:43:02.165Z,12
2016-05-27T03:44:01.995Z,12
2016-05-27T03:45:02.311Z,12
2016-05-27T03:46:02.158Z,12
2016-05-27T03:47:02.332Z,8
2016-05-27T03:48:02.319Z,8
2016-05-27T03:49:02.588Z,12
2016-05-27T03:50:02.355Z,12
2016-05-27T03:51:02.343Z,12
2016-05-27T03:52:02.346Z,12
2016-05-27T03:53:02.191Z,16
2016-05-27T03:54:02.210Z,16
2016-05-27T03:55:02.354Z,16
2016-05-27T03:56:02.387Z,16
2016-05-27T03:57:02.218Z,20
2016-05-27T03:58:02.221Z,20
2016-05-27T03:59:02.239Z,20
2016-05-27T04:00:02.398Z,16
2016-05-27T04:01:02.401Z,16
2016-05-27T04:02:02.403Z,16
2016-05-27T04:03:02.406Z,20
2016-05-27T04:04:02.424Z,20
2016-05-27T04:05:02.412Z,20
2016-05-27T04:06:02.258Z,20
2016-05-27T04:07:02.432Z,20
2016-05-27T04:08:02.451Z,16
2016-05-27T04:09:02.437Z,16
2016-05-27T04:10:02.456Z,16
2016-05-27T04:11:02.443Z,16
2016-05-27T04:12:02.446Z,16
2016-05-27T04:13:02.448Z,16
2016-05-27T04:14:02.451Z,20
2016-05-27T04:15:02.469Z,20
2016-05-27T04:16:02.488Z,16
2016-05-27T04:17:02.319Z,16
2016-05-27T04:18:02.478Z,20
2016-05-27T04:19:02.418Z,20
2016-05-27T04:20:02.327Z,20
2016-05-27T04:21:02.486Z,20
2016-05-27T04:22:02.504Z,24
2016-05-27T04:23:02.507Z,20
2016-05-27T04:24:02.510Z,20
2016-05-27T04:25:02.527Z,24
2016-05-27T04:26:02.516Z,28
2016-05-27T04:27:02.518Z,28
2016-05-27T04:28:02.379Z,28
2016-05-27T04:29:02.538Z,32
2016-05-27T04:30:02.229Z,32
2016-05-27T04:31:02.543Z,32
2016-05-27T04:32:02.546Z,36
2016-05-27T04:33:02.565Z,36
2016-05-27T04:34:02.895Z,36
2016-05-27T04:35:02.570Z,40
2016-05-27T04:36:02.557Z,40
2016-05-27T04:37:02.575Z,36
2016-05-27T04:38:02.578Z,40
2016-05-27T04:39:02.425Z,44
2016-05-27T04:40:02.568Z,44
2016-05-27T04:41:02.602Z,44
2016-05-27T04:42:02.605Z,48
2016-05-27T04:43:02.608Z,44
2016-05-27T04:44:02.611Z,48
2016-05-27T04:45:02.284Z,48
2016-05-27T04:46:02.616Z,48
2016-05-27T04:47:02.619Z,48
2016-05-27T04:48:02.621Z,52
2016-05-27T04:49:02.530Z,52
2016-05-27T04:50:02.485Z,52
2016-05-27T04:51:02.644Z,56
2016-05-27T04:52:02.647Z,60
2016-05-27T04:53:02.666Z,64
2016-05-27T04:54:02.683Z,72
2016-05-27T04:55:02.655Z,76
2016-05-27T04:56:02.658Z,80
2016-05-27T04:57:02.660Z,84
2016-05-27T04:58:02.523Z,92
2016-05-27T04:59:02.682Z,96
2016-05-27T05:00:02.529Z,100
2016-05-27T05:01:02.702Z,104
2016-05-27T05:02:02.549Z,104
2016-05-27T05:03:02.707Z,112
2016-05-27T05:04:02.554Z,116
2016-05-27T05:05:02.713Z,120
2016-05-27T05:06:02.715Z,120
2016-05-27T05:07:02.718Z,124
2016-05-27T05:08:02.721Z,124
2016-05-27T05:09:02.740Z,120
2016-05-27T05:10:02.570Z,116
2016-05-27T05:11:02.745Z,116
2016-05-27T05:12:02.592Z,116
2016-05-27T05:13:02.751Z,116
2016-05-27T05:14:02.770Z,120
2016-05-27T05:15:02.756Z,124
2016-05-27T05:16:02.759Z,124
2016-05-27T05:17:02.605Z,124
2016-05-27T05:18:02.780Z,128
2016-05-27T05:19:03.361Z,128
2016-05-27T05:20:02.644Z,132
2016-05-27T05:21:02.788Z,132
2016-05-27T05:22:02.821Z,136
2016-05-27T05:23:02.808Z,140
2016-05-27T05:24:02.811Z,144
2016-05-27T05:25:02.814Z,148
2016-05-27T05:26:02.816Z,156
2016-05-27T05:27:02.835Z,160
2016-05-27T05:28:02.822Z,164
2016-05-27T05:29:02.528Z,168
2016-05-27T05:30:02.844Z,172
2016-05-27T05:31:02.689Z,176
2016-05-27T05:32:02.849Z,180
2016-05-27T05:33:02.852Z,184
2016-05-27T05:34:02.713Z,188
2016-05-27T05:35:02.873Z,200
2016-05-27T05:36:02.876Z,204
2016-05-27T05:37:02.878Z,216
2016-05-27T05:38:02.881Z,228
2016-05-27T05:39:03.087Z,240
2016-05-27T05:40:02.886Z,252
2016-05-27T05:41:02.732Z,268
2016-05-27T05:42:02.906Z,284
2016-05-27T05:43:02.910Z,296
2016-05-27T05:44:02.912Z,300
2016-05-27T05:45:02.774Z,300
2016-05-27T05:46:02.761Z,296
2016-05-27T05:47:02.764Z,292
2016-05-27T05:48:02.953Z,292
2016-05-27T05:49:03.191Z,284
2016-05-27T05:50:02.944Z,280
2016-05-27T05:51:02.791Z,276
2016-05-27T05:52:02.949Z,276
2016-05-27T05:53:02.796Z,276
2016-05-27T05:54:02.954Z,276
2016-05-27T05:55:02.817Z,276
2016-05-27T05:56:02.975Z,276
2016-05-27T05:57:02.822Z,280
2016-05-27T05:58:02.996Z,288
2016-05-27T05:59:02.983Z,292
2016-05-27T06:00:02.986Z,296
2016-05-27T06:01:03.005Z,304
2016-05-27T06:02:02.852Z,316
2016-05-27T06:03:03.010Z,324
2016-05-27T06:04:03.013Z,332
2016-05-27T06:05:02.859Z,344
2016-05-27T06:06:03.018Z,344
2016-05-27T06:07:04.177Z,348
2016-05-27T06:08:03.071Z,348
2016-05-27T06:09:03.042Z,348
2016-05-27T06:10:03.045Z,356
2016-05-27T06:11:03.063Z,364
2016-05-27T06:12:06.862Z,372
2016-05-27T06:13:03.052Z,388
2016-05-27T06:14:03.056Z,400
2016-05-27T06:15:03.073Z,412
2016-05-27T06:16:02.920Z,440
2016-05-27T06:17:04.813Z,464
2016-05-27T06:18:03.098Z,492
2016-05-27T06:19:03.131Z,524
2016-05-27T06:20:03.086Z,568
2016-05-27T06:21:03.106Z,624
2016-05-27T06:22:06.561Z,692
2016-05-27T06:23:03.111Z,772
2016-05-27T06:24:03.113Z,892
2016-05-27T06:25:03.132Z,1080
2016-05-27T06:26:02.978Z,1352
2016-05-27T06:27:03.121Z,1652
2016-05-27T06:28:03.124Z,1972
2016-05-27T06:29:03.143Z,2312
2016-05-27T06:30:03.146Z,3120
2016-05-27T06:31:02.991Z,2180
2016-05-27T06:32:03.166Z,1880
2016-05-27T06:33:03.154Z,1860
2016-05-27T06:34:03.781Z,1680
2016-05-27T06:35:03.034Z,1616
2016-05-27T06:36:03.177Z,1640
2016-05-27T06:37:03.179Z,1724
2016-05-27T06:38:03.182Z,1944
2016-05-27T06:39:03.185Z,2740
2016-05-27T06:40:03.047Z,3052
2016-05-27T06:41:03.207Z,1976
2016-05-27T06:42:03.053Z,1588
2016-05-27T06:43:03.226Z,1508
2016-05-27T06:44:03.059Z,2144
2016-05-27T06:45:03.076Z,1876
2016-05-27T06:46:03.219Z,2180
2016-05-27T06:47:03.237Z,2040
2016-05-27T06:48:03.240Z,1560
2016-05-27T06:49:03.103Z,1300
2016-05-27T06:50:03.245Z,1176
2016-05-27T06:51:03.248Z,1120
2016-05-27T06:52:03.251Z,1104
2016-05-27T06:53:03.128Z,1096
2016-05-27T06:54:03.272Z,1064
2016-05-27T06:55:03.275Z,1028
2016-05-27T06:56:03.293Z,996
2016-05-27T06:57:03.281Z,960
2016-05-27T06:58:03.283Z,924
2016-05-27T06:59:03.130Z,920
2016-05-27T07:00:03.304Z,912
2016-05-27T07:01:03.149Z,888
2016-05-27T07:02:03.310Z,876
2016-05-27T07:03:03.188Z,864
2016-05-27T07:04:03.268Z,864
2016-05-27T07:05:03.332Z,884
2016-05-27T07:06:03.321Z,908
2016-05-27T07:07:03.354Z,928
2016-05-27T07:08:03.356Z,944
2016-05-27T07:09:03.188Z,964
2016-05-27T07:10:03.346Z,968
2016-05-27T07:11:03.349Z,976
2016-05-27T07:12:03.367Z,992
2016-05-27T07:13:03.370Z,1008
2016-05-27T07:14:03.217Z,1004
2016-05-27T07:15:03.391Z,1008
2016-05-27T07:16:03.394Z,1016
2016-05-27T07:17:03.412Z,1032
2016-05-27T07:18:03.399Z,1064
2016-05-27T07:19:03.871Z,1088
2016-05-27T07:20:03.420Z,1100
2016-05-27T07:21:03.408Z,1100
2016-05-27T07:22:03.253Z,1112
2016-05-27T07:23:03.414Z,1128
2016-05-27T07:24:03.431Z,1164
2016-05-27T07:25:03.433Z,1212
2016-05-27T07:26:03.436Z,1272
2016-05-27T07:27:03.283Z,1292
2016-05-27T07:28:03.286Z,1300
2016-05-27T07:29:03.444Z,1272
2016-05-27T07:30:03.447Z,1260
2016-05-27T07:31:03.481Z,1244
2016-05-27T07:32:03.469Z,1252
2016-05-27T07:33:17.567Z,1264
2016-05-27T07:34:03.582Z,1264
2016-05-27T07:35:03.602Z,1264
2016-05-27T07:36:03.479Z,1256
2016-05-27T07:37:03.326Z,1236
2016-05-27T07:38:03.500Z,1224
2016-05-27T07:39:03.362Z,1212
2016-05-27T07:40:03.504Z,1188
2016-05-27T07:41:03.508Z,1172
2016-05-27T07:42:03.354Z,1168
2016-05-27T07:43:03.529Z,1148
2016-05-27T07:44:03.515Z,1120
2016-05-27T07:45:03.223Z,1096
2016-05-27T07:46:03.395Z,1056
2016-05-27T07:47:03.384Z,1032
2016-05-27T07:48:03.543Z,1008
2016-05-27T07:49:03.592Z,984
2016-05-27T07:50:03.422Z,960
2016-05-27T07:51:03.614Z,928
2016-05-27T07:52:03.412Z,916
2016-05-27T07:53:03.571Z,900
2016-05-27T07:54:03.417Z,896
2016-05-27T07:55:03.264Z,904
2016-05-27T07:56:03.594Z,916
2016-05-27T07:57:03.582Z,940
2016-05-27T07:58:03.585Z,960
2016-05-27T07:59:03.603Z,980
2016-05-27T08:00:03.605Z,1004
2016-05-27T08:01:03.609Z,1024
2016-05-27T08:02:03.611Z,1036
2016-05-27T08:03:03.629Z,1036
2016-05-27T08:04:03.616Z,1040
2016-05-27T08:05:03.651Z,1048
2016-05-27T08:06:03.325Z,1060
2016-05-27T08:07:03.624Z,1076
2016-05-27T08:08:03.643Z,1092
2016-05-27T08:09:03.645Z,1116
2016-05-27T08:10:03.665Z,1132
2016-05-27T08:11:03.651Z,1168
2016-05-27T08:12:03.513Z,1220
2016-05-27T08:13:03.500Z,1276
2016-05-27T08:14:03.519Z,1312
2016-05-27T08:15:03.678Z,1348
2016-05-27T08:16:03.681Z,1384
2016-05-27T08:17:03.683Z,1404
2016-05-27T08:18:03.701Z,1408
2016-05-27T08:19:03.548Z,1412
2016-05-27T08:20:04.128Z,1456
2016-05-27T08:21:03.709Z,1568
2016-05-27T08:22:03.743Z,1880
2016-05-27T08:23:03.589Z,1964
2016-05-27T08:24:03.578Z,2300
2016-05-27T08:25:03.767Z,2136
2016-05-27T08:26:03.722Z,1988
2016-05-27T08:27:03.741Z,1804
2016-05-27T08:28:03.744Z,1564
2016-05-27T08:29:03.747Z,1384
2016-05-27T08:30:03.764Z,1284
2016-05-27T08:31:03.611Z,1276
2016-05-27T08:32:03.786Z,1320
2016-05-27T08:33:03.616Z,1384
2016-05-27T08:34:03.869Z,1488
2016-05-27T08:35:04.310Z,1568
2016-05-27T08:36:03.797Z,1628
2016-05-27T08:37:03.643Z,1656
2016-05-27T08:38:03.786Z,1628
2016-05-27T08:39:03.804Z,1532
2016-05-27T08:40:03.838Z,1412
2016-05-27T08:41:03.826Z,1368
2016-05-27T08:42:03.829Z,1396
2016-05-27T08:43:03.831Z,1456
2016-05-27T08:44:03.849Z,1524
2016-05-27T08:45:03.837Z,1496
2016-05-27T08:46:03.854Z,1428
2016-05-27T08:47:03.701Z,1420
2016-05-27T08:48:03.860Z,1396
2016-05-27T08:49:03.878Z,1372
2016-05-27T08:50:03.897Z,1340
2016-05-27T08:51:03.868Z,1316
2016-05-27T08:52:03.871Z,1300
2016-05-27T08:53:03.890Z,1296
2016-05-27T08:54:03.892Z,1292
2016-05-27T08:55:03.895Z,1308
2016-05-27T08:56:03.897Z,1332
2016-05-27T08:57:03.759Z,1376
2016-05-27T08:58:03.919Z,1416
2016-05-27T08:59:03.764Z,1428
2016-05-27T09:00:03.627Z,1424
2016-05-27T09:01:03.941Z,1388
2016-05-27T09:02:03.930Z,1348
2016-05-27T09:03:03.791Z,1324
2016-05-27T09:04:03.669Z,1292
2016-05-27T09:05:04.172Z,1268
2016-05-27T09:06:03.955Z,1248
2016-05-27T09:07:03.802Z,1236
2016-05-27T09:08:03.977Z,1228
2016-05-27T09:09:03.979Z,1228
2016-05-27T09:10:03.966Z,1240
2016-05-27T09:11:04.000Z,1264
2016-05-27T09:12:03.987Z,1300
2016-05-27T09:13:03.990Z,1344
2016-05-27T09:14:03.992Z,1376
2016-05-27T09:15:03.996Z,1428
2016-05-27T09:16:03.857Z,1484
2016-05-27T09:17:03.859Z,1540
2016-05-27T09:18:04.034Z,1604
2016-05-27T09:19:03.976Z,1672
2016-05-27T09:20:04.634Z,1744
2016-05-27T09:21:04.026Z,1824
2016-05-27T09:22:04.061Z,1892
2016-05-27T09:23:03.891Z,1944
2016-05-27T09:24:04.067Z,2032
2016-05-27T09:25:03.913Z,2140
2016-05-27T09:26:04.072Z,2192
2016-05-27T09:27:04.075Z,2240
2016-05-27T09:28:04.077Z,2288
2016-05-27T09:29:04.080Z,2368
2016-05-27T09:30:04.083Z,2420
2016-05-27T09:31:03.960Z,2416
2016-05-27T09:32:03.947Z,2436
2016-05-27T09:33:03.950Z,2436
2016-05-27T09:34:04.124Z,2424
2016-05-27T09:35:04.986Z,2432
2016-05-27T09:36:03.974Z,2456
2016-05-27T09:37:04.133Z,2488
2016-05-27T09:38:04.135Z,2524
2016-05-27T09:39:03.982Z,2480
2016-05-27T09:40:04.000Z,2396
2016-05-27T09:41:04.705Z,2304
2016-05-27T09:42:04.005Z,2240
2016-05-27T09:43:04.165Z,2196
2016-05-27T09:44:04.167Z,2204
2016-05-27T09:45:04.170Z,2240
2016-05-27T09:46:04.016Z,2280
2016-05-27T09:47:04.190Z,2296
2016-05-27T09:48:04.037Z,2288
2016-05-27T09:49:04.212Z,2288
2016-05-27T09:50:04.276Z,2288
2016-05-27T09:51:03.904Z,2296
2016-05-27T09:52:04.220Z,2312
2016-05-27T09:53:04.237Z,2352
2016-05-27T09:54:04.240Z,2408
2016-05-27T09:55:04.228Z,2472
2016-05-27T09:56:04.246Z,2568
2016-05-27T09:57:04.264Z,2692
2016-05-27T09:58:04.251Z,2740
2016-05-27T09:59:04.269Z,2856
2016-05-27T10:00:04.257Z,2624
2016-05-27T10:01:04.259Z,2528
2016-05-27T10:02:04.122Z,2480
2016-05-27T10:03:04.124Z,2440
2016-05-27T10:04:04.330Z,2420
2016-05-27T10:05:04.519Z,2436
2016-05-27T10:06:04.289Z,2468
2016-05-27T10:07:04.292Z,2552
2016-05-27T10:08:04.325Z,2664
2016-05-27T10:09:04.155Z,2860
2016-05-27T10:10:04.330Z,3032
2016-05-27T10:11:04.160Z,2860
2016-05-27T10:12:04.320Z,2756
2016-05-27T10:13:04.339Z,2560
2016-05-27T10:14:04.185Z,2460
2016-05-27T10:15:04.204Z,2388
2016-05-27T10:16:04.206Z,2360
2016-05-27T10:17:04.193Z,2328
2016-05-27T10:18:04.352Z,2264
2016-05-27T10:19:04.371Z,2188
2016-05-27T10:20:05.217Z,2132
2016-05-27T10:21:04.235Z,2084
2016-05-27T10:22:04.378Z,2064
2016-05-27T10:23:04.240Z,2028
2016-05-27T10:24:04.400Z,2004
2016-05-27T10:25:04.403Z,2016
2016-05-27T10:26:04.248Z,2080
2016-05-27T10:27:04.408Z,2052
2016-05-27T10:28:06.739Z,2008
2016-05-27T10:29:04.428Z,2044
2016-05-27T10:30:04.259Z,2116
2016-05-27T10:31:04.434Z,2176
2016-05-27T10:32:04.296Z,2272
2016-05-27T10:33:04.455Z,2372
2016-05-27T10:34:04.598Z,2464
2016-05-27T10:35:05.554Z,2516
2016-05-27T10:36:04.307Z,2568
2016-05-27T10:37:04.310Z,2664
2016-05-27T10:38:04.312Z,2816
2016-05-27T10:39:04.487Z,2612
2016-05-27T10:40:04.505Z,2532
2016-05-27T10:41:04.491Z,2608
2016-05-27T10:42:04.495Z,2564
2016-05-27T10:43:11.279Z,2400
2016-05-27T10:44:04.516Z,2328
2016-05-27T10:45:04.363Z,2444
2016-05-27T10:46:04.537Z,2348
2016-05-27T10:47:04.399Z,2184
2016-05-27T10:48:08.698Z,2116
2016-05-27T10:49:05.185Z,2124
2016-05-27T10:50:04.406Z,2180
2016-05-27T10:51:04.550Z,2252
2016-05-27T10:52:04.397Z,2256
2016-05-27T10:53:04.571Z,2236
2016-05-27T10:54:04.573Z,2240
2016-05-27T10:55:04.420Z,2212
2016-05-27T10:56:04.579Z,2208
2016-05-27T10:57:04.467Z,2228
2016-05-27T10:58:04.496Z,2248
2016-05-27T10:59:04.680Z,2208
2016-05-27T11:00:04.708Z,2188
2016-05-27T11:01:04.753Z,2248
2016-05-27T11:02:04.765Z,2324
2016-05-27T11:03:04.777Z,2256
2016-05-27T11:04:05.070Z,2280
2016-05-27T11:05:05.253Z,2288
2016-05-27T11:06:06.078Z,2440
2016-05-27T11:07:04.819Z,2276
2016-05-27T11:08:04.825Z,2280
2016-05-27T11:09:04.690Z,2216
2016-05-27T11:10:04.696Z,2220
2016-05-27T11:11:05.922Z,2208
2016-05-27T11:12:04.862Z,2208
2016-05-27T11:13:04.726Z,2192
2016-05-27T11:14:04.885Z,2196
2016-05-27T11:15:04.734Z,2164
2016-05-27T11:16:07.034Z,2116
2016-05-27T11:17:04.912Z,2064
2016-05-27T11:18:04.759Z,2040
2016-05-27T11:19:04.949Z,2008
2016-05-27T11:20:04.781Z,1972
2016-05-27T11:21:09.596Z,1920
2016-05-27T11:22:04.959Z,1888
2016-05-27T11:23:04.930Z,1848
2016-05-27T11:24:04.949Z,1828
2016-05-27T11:25:04.952Z,1760
2016-05-27T11:26:06.315Z,1720
2016-05-27T11:27:04.974Z,1696
2016-05-27T11:28:04.805Z,1656
2016-05-27T11:29:04.979Z,1624
2016-05-27T11:30:04.982Z,1560
2016-05-27T11:31:06.859Z,1500
2016-05-27T11:32:04.987Z,1464
2016-05-27T11:33:04.990Z,1432
2016-05-27T11:34:04.835Z,1404
2016-05-27T11:35:05.199Z,1368
2016-05-27T11:36:06.123Z,1328
2016-05-27T11:37:04.875Z,1300
2016-05-27T11:38:05.035Z,1272
2016-05-27T11:39:05.021Z,1232
2016-05-27T11:40:05.056Z,1180
2016-05-27T11:41:07.605Z,1128
2016-05-27T11:42:04.904Z,1080
2016-05-27T11:43:05.064Z,1040
2016-05-27T11:44:05.067Z,1004
2016-05-27T11:45:05.069Z,972
2016-05-27T11:46:07.431Z,936
2016-05-27T11:47:04.918Z,912
2016-05-27T11:48:04.920Z,900
2016-05-27T11:49:05.533Z,900
2016-05-27T11:50:05.129Z,900
2016-05-27T11:51:13.522Z,900
2016-05-27T11:52:04.964Z,900
2016-05-27T11:53:04.950Z,896
2016-05-27T11:54:04.968Z,892
2016-05-27T11:55:05.127Z,896
2016-05-27T11:56:06.802Z,928
2016-05-27T11:57:04.976Z,948
2016-05-27T11:58:05.135Z,960
2016-05-27T11:59:04.982Z,980
2016-05-27T12:00:05.015Z,1020
2016-05-27T12:01:06.894Z,1064
2016-05-27T12:02:05.161Z,1128
2016-05-27T12:03:05.180Z,1216
2016-05-27T12:04:05.182Z,1312
2016-05-27T12:05:05.607Z,1412
2016-05-27T12:06:06.751Z,1508
2016-05-27T12:07:05.191Z,1576
2016-05-27T12:08:05.193Z,1592
2016-05-27T12:09:05.196Z,1572
2016-05-27T12:10:05.198Z,1572
2016-05-27T12:11:08.233Z,1584
2016-05-27T12:12:05.220Z,1628
2016-05-27T12:13:05.238Z,1664
2016-05-27T12:14:05.240Z,1720
2016-05-27T12:15:05.071Z,1768
2016-05-27T12:16:05.231Z,1800
2016-05-27T12:17:05.248Z,1800
2016-05-27T12:18:05.267Z,1768
2016-05-27T12:19:05.941Z,1732
2016-05-27T12:20:05.226Z,1712
2016-05-27T12:21:04.962Z,1660
2016-05-27T12:22:05.277Z,1628
2016-05-27T12:23:05.187Z,1608
2016-05-27T12:24:05.299Z,1572
2016-05-27T12:25:05.286Z,1544
2016-05-27T12:26:05.305Z,1536
2016-05-27T12:27:05.307Z,1564
2016-05-27T12:28:05.310Z,1556
2016-05-27T12:29:05.312Z,1540
2016-05-27T12:30:05.315Z,1524
2016-05-27T12:31:05.177Z,1488
2016-05-27T12:32:05.335Z,1436
2016-05-27T12:33:05.338Z,1372
2016-05-27T12:34:05.701Z,1340
2016-05-27T12:35:06.016Z,1316
2016-05-27T12:36:05.050Z,1288
2016-05-27T12:37:05.365Z,1260
2016-05-27T12:38:05.368Z,1228
2016-05-27T12:39:05.215Z,1240
2016-05-27T12:40:05.232Z,1264
2016-05-27T12:41:05.391Z,1300
2016-05-27T12:42:05.238Z,1324
2016-05-27T12:43:05.396Z,1348
2016-05-27T12:44:10.353Z,1388
2016-05-27T12:45:05.245Z,1416
2016-05-27T12:46:05.420Z,1436
2016-05-27T12:47:05.267Z,1468
2016-05-27T12:48:05.442Z,1496
2016-05-27T12:49:08.070Z,1516
2016-05-27T12:50:06.587Z,1552
2016-05-27T12:51:05.497Z,1568
2016-05-27T12:52:05.312Z,1580
2016-05-27T12:53:05.783Z,1636
2016-05-27T12:54:05.520Z,1724
2016-05-27T12:55:05.319Z,1864
2016-05-27T12:56:05.322Z,1816
2016-05-27T12:57:05.466Z,1896
2016-05-27T12:58:05.484Z,1832
2016-05-27T12:59:05.330Z,1804
2016-05-27T13:00:05.489Z,1724
2016-05-27T13:01:05.492Z,1656
2016-05-27T13:02:05.495Z,1624
2016-05-27T13:03:05.513Z,1592
2016-05-27T13:04:06.046Z,1580
2016-05-27T13:05:05.894Z,1552
2016-05-27T13:06:05.521Z,1528
2016-05-27T13:07:05.368Z,1532
2016-05-27T13:08:05.543Z,1544
2016-05-27T13:09:05.388Z,1524
2016-05-27T13:10:05.548Z,1476
2016-05-27T13:11:05.551Z,1444
2016-05-27T13:12:05.257Z,1376
2016-05-27T13:13:05.415Z,1320
2016-05-27T13:14:05.418Z,1308
2016-05-27T13:15:05.577Z,1300
2016-05-27T13:16:05.579Z,1300
2016-05-27T13:17:05.582Z,1308
2016-05-27T13:18:05.444Z,1284
2016-05-27T13:19:05.587Z,1228
2016-05-27T13:20:06.168Z,1208
2016-05-27T13:21:05.453Z,1168
2016-05-27T13:22:05.455Z,1152
2016-05-27T13:23:05.614Z,1132
2016-05-27T13:24:05.631Z,1120
2016-05-27T13:25:05.478Z,1120
2016-05-27T13:26:05.622Z,1116
2016-05-27T13:27:05.640Z,1112
2016-05-27T13:28:05.658Z,1100
2016-05-27T13:29:05.661Z,1092
2016-05-27T13:30:05.664Z,1084
2016-05-27T13:31:05.666Z,1088
2016-05-27T13:32:05.669Z,1112
2016-05-27T13:33:05.688Z,1132
2016-05-27T13:34:05.378Z,1172
2016-05-27T13:35:05.756Z,1184
2016-05-27T13:36:05.696Z,1180
2016-05-27T13:37:05.714Z,1168
2016-05-27T13:38:05.701Z,1276
2016-05-27T13:39:05.719Z,1308
2016-05-27T13:40:05.706Z,1296
2016-05-27T13:41:05.569Z,1276
2016-05-27T13:42:05.727Z,1264
2016-05-27T13:43:05.574Z,1188
2016-05-27T13:44:05.576Z,1148
2016-05-27T13:45:05.735Z,1120
2016-05-27T13:46:05.581Z,1148
2016-05-27T13:47:05.756Z,1148
2016-05-27T13:48:05.603Z,1136
2016-05-27T13:49:06.293Z,1072
2016-05-27T13:50:05.781Z,1088